sensor_id;sensor_type;location;lat;lon;timestamp;P1;durP1;ratioP1;P2;durP2;ratioP2
21299;SDS011;10809;49.476;11.016;2023-04-24T00:02:23;1.57;;;0.77;;
21299;SDS011;10809;49.476;11.016;2023-04-24T00:04:54;0.73;;;0.73;;
21299;SDS011;10809;49.476;11.016;2023-04-24T00:07:28;4.20;;;0.80;;
21299;SDS011;10809;49.476;11.016;2023-04-24T00:09:59;0.60;;;0.60;;
21299;SDS011;10809;49.476;11.016;2023-04-24T00:12:30;1.97;;;1.00;;
21299;SDS011;10809;49.476;11.016;2023-04-24T00:15:01;0.83;;;0.70;;
21299;SDS011;10809;49.476;11.016;2023-04-24T00:17:32;0.73;;;0.73;;
21299;SDS011;10809;49.476;11.016;2023-04-24T00:20:03;1.37;;;0.90;;
21299;SDS011;10809;49.476;11.016;2023-04-24T00:22:34;2.63;;;0.90;;
21299;SDS011;10809;49.476;11.016;2023-04-24T00:25:08;0.70;;;0.70;;
21299;SDS011;10809;49.476;11.016;2023-04-24T00:27:41;1.23;;;0.80;;
21299;SDS011;10809;49.476;11.016;2023-04-24T00:30:15;1.03;;;0.70;;
21299;SDS011;10809;49.476;11.016;2023-04-24T00:32:46;1.17;;;0.90;;
21299;SDS011;10809;49.476;11.016;2023-04-24T00:35:22;0.70;;;0.70;;
21299;SDS011;10809;49.476;11.016;2023-04-24T00:37:53;3.40;;;0.70;;
21299;SDS011;10809;49.476;11.016;2023-04-24T00:40:23;1.80;;;1.03;;
21299;SDS011;10809;49.476;11.016;2023-04-24T00:42:54;1.07;;;0.80;;
21299;SDS011;10809;49.476;11.016;2023-04-24T00:45:24;1.10;;;0.70;;
21299;SDS011;10809;49.476;11.016;2023-04-24T00:47:55;0.70;;;0.70;;
21299;SDS011;10809;49.476;11.016;2023-04-24T00:50:32;3.33;;;0.83;;
21299;SDS011;10809;49.476;11.016;2023-04-24T00:53:09;3.83;;;0.97;;
21299;SDS011;10809;49.476;11.016;2023-04-24T00:55:46;1.33;;;0.73;;
21299;SDS011;10809;49.476;11.016;2023-04-24T00:58:20;1.47;;;0.53;;
21299;SDS011;10809;49.476;11.016;2023-04-24T01:00:51;0.97;;;0.40;;
21299;SDS011;10809;49.476;11.016;2023-04-24T01:03:24;1.80;;;1.03;;
21299;SDS011;10809;49.476;11.016;2023-04-24T01:05:56;0.53;;;0.53;;
21299;SDS011;10809;49.476;11.016;2023-04-24T01:08:27;0.77;;;0.70;;
21299;SDS011;10809;49.476;11.016;2023-04-24T01:10:58;0.53;;;0.50;;
21299;SDS011;10809;49.476;11.016;2023-04-24T01:13:32;1.20;;;1.10;;
21299;SDS011;10809;49.476;11.016;2023-04-24T01:16:03;0.90;;;0.77;;
21299;SDS011;10809;49.476;11.016;2023-04-24T01:18:34;0.67;;;0.53;;
21299;SDS011;10809;49.476;11.016;2023-04-24T01:21:04;0.80;;;0.60;;
21299;SDS011;10809;49.476;11.016;2023-04-24T01:23:37;3.13;;;0.60;;
21299;SDS011;10809;49.476;11.016;2023-04-24T01:26:08;3.00;;;0.70;;
21299;SDS011;10809;49.476;11.016;2023-04-24T01:28:38;0.77;;;0.70;;
21299;SDS011;10809;49.476;11.016;2023-04-24T01:31:30;1.23;;;0.40;;
21299;SDS011;10809;49.476;11.016;2023-04-24T01:34:18;1.27;;;0.70;;
21299;SDS011;10809;49.476;11.016;2023-04-24T01:36:49;0.60;;;0.60;;
21299;SDS011;10809;49.476;11.016;2023-04-24T01:39:23;0.97;;;0.50;;
21299;SDS011;10809;49.476;11.016;2023-04-24T01:41:57;2.87;;;0.70;;
21299;SDS011;10809;49.476;11.016;2023-04-24T01:44:28;0.30;;;0.30;;
21299;SDS011;10809;49.476;11.016;2023-04-24T01:46:59;1.90;;;0.40;;
21299;SDS011;10809;49.476;11.016;2023-04-24T01:49:30;0.50;;;0.50;;
21299;SDS011;10809;49.476;11.016;2023-04-24T01:52:02;1.23;;;0.77;;
21299;SDS011;10809;49.476;11.016;2023-04-24T01:54:34;1.33;;;0.40;;
21299;SDS011;10809;49.476;11.016;2023-04-24T01:57:08;0.67;;;0.30;;
21299;SDS011;10809;49.476;11.016;2023-04-24T01:59:39;1.53;;;0.40;;
21299;SDS011;10809;49.476;11.016;2023-04-24T02:02:10;1.57;;;0.40;;
21299;SDS011;10809;49.476;11.016;2023-04-24T02:04:40;0.40;;;0.40;;
21299;SDS011;10809;49.476;11.016;2023-04-24T02:07:11;0.40;;;0.40;;
21299;SDS011;10809;49.476;11.016;2023-04-24T02:09:42;0.60;;;0.47;;
21299;SDS011;10809;49.476;11.016;2023-04-24T02:12:15;0.43;;;0.40;;
21299;SDS011;10809;49.476;11.016;2023-04-24T02:14:54;1.10;;;0.30;;
21299;SDS011;10809;49.476;11.016;2023-04-24T02:17:28;0.30;;;0.30;;
21299;SDS011;10809;49.476;11.016;2023-04-24T02:19:58;1.27;;;0.50;;
21299;SDS011;10809;49.476;11.016;2023-04-24T02:22:28;3.80;;;0.47;;
21299;SDS011;10809;49.476;11.016;2023-04-24T02:24:59;0.20;;;0.20;;
21299;SDS011;10809;49.476;11.016;2023-04-24T02:27:30;0.97;;;0.60;;
21299;SDS011;10809;49.476;11.016;2023-04-24T02:30:00;0.50;;;0.40;;
21299;SDS011;10809;49.476;11.016;2023-04-24T02:32:31;3.47;;;0.70;;
21299;SDS011;10809;49.476;11.016;2023-04-24T02:35:02;0.40;;;0.40;;
21299;SDS011;10809;49.476;11.016;2023-04-24T02:37:41;0.40;;;0.40;;
21299;SDS011;10809;49.476;11.016;2023-04-24T02:40:19;0.30;;;0.30;;
21299;SDS011;10809;49.476;11.016;2023-04-24T02:42:49;5.27;;;0.37;;
21299;SDS011;10809;49.476;11.016;2023-04-24T02:45:27;0.30;;;0.30;;
21299;SDS011;10809;49.476;11.016;2023-04-24T02:48:00;0.40;;;0.40;;
21299;SDS011;10809;49.476;11.016;2023-04-24T02:50:47;1.27;;;0.40;;
21299;SDS011;10809;49.476;11.016;2023-04-24T02:53:21;0.50;;;0.37;;
21299;SDS011;10809;49.476;11.016;2023-04-24T02:55:54;2.10;;;0.47;;
21299;SDS011;10809;49.476;11.016;2023-04-24T02:58:25;0.37;;;0.30;;
21299;SDS011;10809;49.476;11.016;2023-04-24T03:00:55;0.50;;;0.30;;
21299;SDS011;10809;49.476;11.016;2023-04-24T03:03:26;1.80;;;0.30;;
21299;SDS011;10809;49.476;11.016;2023-04-24T03:05:56;0.43;;;0.30;;
21299;SDS011;10809;49.476;11.016;2023-04-24T03:08:30;1.77;;;0.50;;
21299;SDS011;10809;49.476;11.016;2023-04-24T03:11:01;0.33;;;0.33;;
21299;SDS011;10809;49.476;11.016;2023-04-24T03:13:32;0.47;;;0.40;;
21299;SDS011;10809;49.476;11.016;2023-04-24T03:16:06;0.70;;;0.30;;
21299;SDS011;10809;49.476;11.016;2023-04-24T03:18:46;2.87;;;0.30;;
21299;SDS011;10809;49.476;11.016;2023-04-24T03:21:16;2.17;;;0.40;;
21299;SDS011;10809;49.476;11.016;2023-04-24T03:23:48;1.27;;;0.50;;
21299;SDS011;10809;49.476;11.016;2023-04-24T03:26:19;0.87;;;0.40;;
21299;SDS011;10809;49.476;11.016;2023-04-24T03:29:04;0.57;;;0.40;;
21299;SDS011;10809;49.476;11.016;2023-04-24T03:31:34;0.97;;;0.53;;
21299;SDS011;10809;49.476;11.016;2023-04-24T03:34:14;0.83;;;0.60;;
21299;SDS011;10809;49.476;11.016;2023-04-24T03:36:45;2.30;;;0.40;;
21299;SDS011;10809;49.476;11.016;2023-04-24T03:39:18;1.63;;;0.50;;
21299;SDS011;10809;49.476;11.016;2023-04-24T03:42:03;1.00;;;0.50;;
21299;SDS011;10809;49.476;11.016;2023-04-24T03:44:45;1.57;;;0.30;;
21299;SDS011;10809;49.476;11.016;2023-04-24T03:47:19;2.47;;;0.57;;
21299;SDS011;10809;49.476;11.016;2023-04-24T03:50:00;0.97;;;0.20;;
21299;SDS011;10809;49.476;11.016;2023-04-24T03:52:32;0.70;;;0.70;;
21299;SDS011;10809;49.476;11.016;2023-04-24T03:55:03;1.63;;;0.50;;
21299;SDS011;10809;49.476;11.016;2023-04-24T03:57:40;0.90;;;0.60;;
21299;SDS011;10809;49.476;11.016;2023-04-24T04:00:20;1.50;;;0.70;;
21299;SDS011;10809;49.476;11.016;2023-04-24T04:02:58;0.90;;;0.47;;
21299;SDS011;10809;49.476;11.016;2023-04-24T04:05:29;0.60;;;0.60;;
21299;SDS011;10809;49.476;11.016;2023-04-24T04:08:00;1.40;;;0.70;;
21299;SDS011;10809;49.476;11.016;2023-04-24T04:10:31;0.87;;;0.40;;
21299;SDS011;10809;49.476;11.016;2023-04-24T04:13:01;0.47;;;0.47;;
21299;SDS011;10809;49.476;11.016;2023-04-24T04:15:32;0.70;;;0.50;;
21299;SDS011;10809;49.476;11.016;2023-04-24T04:18:02;0.70;;;0.57;;
21299;SDS011;10809;49.476;11.016;2023-04-24T04:20:34;0.83;;;0.50;;
21299;SDS011;10809;49.476;11.016;2023-04-24T04:23:04;0.87;;;0.67;;
21299;SDS011;10809;49.476;11.016;2023-04-24T04:25:53;0.40;;;0.40;;
21299;SDS011;10809;49.476;11.016;2023-04-24T04:28:29;1.23;;;0.80;;
21299;SDS011;10809;49.476;11.016;2023-04-24T04:31:01;0.70;;;0.70;;
21299;SDS011;10809;49.476;11.016;2023-04-24T04:33:32;2.10;;;0.80;;
21299;SDS011;10809;49.476;11.016;2023-04-24T04:36:09;0.73;;;0.63;;
21299;SDS011;10809;49.476;11.016;2023-04-24T04:38:47;1.13;;;0.70;;
21299;SDS011;10809;49.476;11.016;2023-04-24T04:41:47;1.50;;;0.80;;
21299;SDS011;10809;49.476;11.016;2023-04-24T04:44:20;1.67;;;0.93;;
21299;SDS011;10809;49.476;11.016;2023-04-24T04:46:51;2.57;;;0.87;;
21299;SDS011;10809;49.476;11.016;2023-04-24T04:49:43;2.97;;;0.87;;
21299;SDS011;10809;49.476;11.016;2023-04-24T04:52:27;0.70;;;0.70;;
21299;SDS011;10809;49.476;11.016;2023-04-24T04:55:09;1.70;;;0.80;;
21299;SDS011;10809;49.476;11.016;2023-04-24T04:57:58;1.00;;;0.73;;
21299;SDS011;10809;49.476;11.016;2023-04-24T05:00:30;1.43;;;1.10;;
21299;SDS011;10809;49.476;11.016;2023-04-24T05:03:16;0.83;;;0.77;;
21299;SDS011;10809;49.476;11.016;2023-04-24T05:05:46;2.70;;;1.20;;
21299;SDS011;10809;49.476;11.016;2023-04-24T05:08:19;0.70;;;0.70;;
21299;SDS011;10809;49.476;11.016;2023-04-24T05:10:49;1.60;;;0.80;;
21299;SDS011;10809;49.476;11.016;2023-04-24T05:13:20;2.33;;;1.17;;
21299;SDS011;10809;49.476;11.016;2023-04-24T05:15:54;5.63;;;1.37;;
21299;SDS011;10809;49.476;11.016;2023-04-24T05:18:25;1.20;;;1.10;;
21299;SDS011;10809;49.476;11.016;2023-04-24T05:20:56;1.73;;;1.20;;
21299;SDS011;10809;49.476;11.016;2023-04-24T05:23:34;1.30;;;1.20;;
21299;SDS011;10809;49.476;11.016;2023-04-24T05:26:05;1.37;;;1.10;;
21299;SDS011;10809;49.476;11.016;2023-04-24T05:28:38;2.90;;;1.37;;
21299;SDS011;10809;49.476;11.016;2023-04-24T05:31:13;3.23;;;0.97;;
21299;SDS011;10809;49.476;11.016;2023-04-24T05:33:50;3.10;;;1.47;;
21299;SDS011;10809;49.476;11.016;2023-04-24T05:36:21;1.00;;;1.00;;
21299;SDS011;10809;49.476;11.016;2023-04-24T05:38:51;1.27;;;1.10;;
21299;SDS011;10809;49.476;11.016;2023-04-24T05:41:22;1.03;;;0.97;;
21299;SDS011;10809;49.476;11.016;2023-04-24T05:43:52;1.10;;;0.93;;
21299;SDS011;10809;49.476;11.016;2023-04-24T05:46:23;2.50;;;1.00;;
21299;SDS011;10809;49.476;11.016;2023-04-24T05:48:54;4.87;;;1.30;;
21299;SDS011;10809;49.476;11.016;2023-04-24T05:51:24;2.20;;;1.13;;
21299;SDS011;10809;49.476;11.016;2023-04-24T05:53:56;1.30;;;0.93;;
21299;SDS011;10809;49.476;11.016;2023-04-24T05:56:26;2.07;;;0.97;;
21299;SDS011;10809;49.476;11.016;2023-04-24T05:59:00;1.30;;;1.10;;
21299;SDS011;10809;49.476;11.016;2023-04-24T06:01:34;0.83;;;0.60;;
21299;SDS011;10809;49.476;11.016;2023-04-24T06:04:18;2.17;;;1.23;;
21299;SDS011;10809;49.476;11.016;2023-04-24T06:06:49;2.37;;;0.83;;
21299;SDS011;10809;49.476;11.016;2023-04-24T06:09:22;1.13;;;1.03;;
21299;SDS011;10809;49.476;11.016;2023-04-24T06:11:53;7.30;;;0.90;;
21299;SDS011;10809;49.476;11.016;2023-04-24T06:14:27;1.63;;;0.83;;
21299;SDS011;10809;49.476;11.016;2023-04-24T06:17:35;0.90;;;0.90;;
21299;SDS011;10809;49.476;11.016;2023-04-24T06:20:06;2.67;;;1.07;;
21299;SDS011;10809;49.476;11.016;2023-04-24T06:22:38;1.60;;;1.30;;
21299;SDS011;10809;49.476;11.016;2023-04-24T06:25:13;2.03;;;0.80;;
21299;SDS011;10809;49.476;11.016;2023-04-24T06:27:46;1.90;;;0.70;;
21299;SDS011;10809;49.476;11.016;2023-04-24T06:30:17;2.13;;;0.80;;
21299;SDS011;10809;49.476;11.016;2023-04-24T06:32:48;1.27;;;0.70;;
21299;SDS011;10809;49.476;11.016;2023-04-24T06:35:19;1.10;;;1.00;;
21299;SDS011;10809;49.476;11.016;2023-04-24T06:37:51;3.10;;;1.13;;
21299;SDS011;10809;49.476;11.016;2023-04-24T06:40:21;1.00;;;0.63;;
21299;SDS011;10809;49.476;11.016;2023-04-24T06:42:52;1.20;;;0.53;;
21299;SDS011;10809;49.476;11.016;2023-04-24T06:45:23;2.30;;;0.40;;
21299;SDS011;10809;49.476;11.016;2023-04-24T06:47:53;1.67;;;0.30;;
21299;SDS011;10809;49.476;11.016;2023-04-24T06:50:24;2.17;;;0.53;;
21299;SDS011;10809;49.476;11.016;2023-04-24T06:52:54;0.73;;;0.40;;
21299;SDS011;10809;49.476;11.016;2023-04-24T06:55:28;2.50;;;0.50;;
21299;SDS011;10809;49.476;11.016;2023-04-24T06:58:04;2.43;;;0.57;;
21299;SDS011;10809;49.476;11.016;2023-04-24T07:00:36;2.30;;;0.30;;
21299;SDS011;10809;49.476;11.016;2023-04-24T07:03:06;0.43;;;0.37;;
21299;SDS011;10809;49.476;11.016;2023-04-24T07:05:37;0.50;;;0.50;;
21299;SDS011;10809;49.476;11.016;2023-04-24T07:08:11;0.40;;;0.40;;
21299;SDS011;10809;49.476;11.016;2023-04-24T07:10:48;0.33;;;0.33;;
21299;SDS011;10809;49.476;11.016;2023-04-24T07:13:19;0.50;;;0.50;;
21299;SDS011;10809;49.476;11.016;2023-04-24T07:15:49;1.17;;;0.50;;
21299;SDS011;10809;49.476;11.016;2023-04-24T07:18:22;0.80;;;0.50;;
21299;SDS011;10809;49.476;11.016;2023-04-24T07:20:53;0.50;;;0.50;;
21299;SDS011;10809;49.476;11.016;2023-04-24T07:23:23;1.73;;;0.43;;
21299;SDS011;10809;49.476;11.016;2023-04-24T07:25:54;1.23;;;0.70;;
21299;SDS011;10809;49.476;11.016;2023-04-24T07:28:25;0.60;;;0.60;;
21299;SDS011;10809;49.476;11.016;2023-04-24T07:30:55;1.90;;;0.60;;
21299;SDS011;10809;49.476;11.016;2023-04-24T07:33:35;0.83;;;0.50;;
21299;SDS011;10809;49.476;11.016;2023-04-24T07:36:06;1.50;;;0.40;;
21299;SDS011;10809;49.476;11.016;2023-04-24T07:38:36;0.73;;;0.43;;
21299;SDS011;10809;49.476;11.016;2023-04-24T07:41:07;0.70;;;0.70;;
21299;SDS011;10809;49.476;11.016;2023-04-24T07:43:37;0.70;;;0.70;;
21299;SDS011;10809;49.476;11.016;2023-04-24T07:46:14;1.47;;;0.60;;
21299;SDS011;10809;49.476;11.016;2023-04-24T07:48:44;1.23;;;0.50;;
21299;SDS011;10809;49.476;11.016;2023-04-24T07:51:16;4.47;;;1.00;;
21299;SDS011;10809;49.476;11.016;2023-04-24T07:53:50;1.03;;;0.80;;
21299;SDS011;10809;49.476;11.016;2023-04-24T07:56:20;0.60;;;0.60;;
21299;SDS011;10809;49.476;11.016;2023-04-24T07:58:57;0.63;;;0.63;;
21299;SDS011;10809;49.476;11.016;2023-04-24T08:01:31;2.20;;;0.70;;
21299;SDS011;10809;49.476;11.016;2023-04-24T08:04:01;2.20;;;0.70;;
21299;SDS011;10809;49.476;11.016;2023-04-24T08:06:32;0.53;;;0.53;;
21299;SDS011;10809;49.476;11.016;2023-04-24T08:09:02;1.40;;;0.70;;
21299;SDS011;10809;49.476;11.016;2023-04-24T08:11:33;0.77;;;0.77;;
21299;SDS011;10809;49.476;11.016;2023-04-24T08:14:03;0.73;;;0.70;;
21299;SDS011;10809;49.476;11.016;2023-04-24T08:16:34;0.70;;;0.70;;
21299;SDS011;10809;49.476;11.016;2023-04-24T08:19:05;1.30;;;1.20;;
21299;SDS011;10809;49.476;11.016;2023-04-24T08:21:35;0.70;;;0.70;;
21299;SDS011;10809;49.476;11.016;2023-04-24T08:24:06;1.70;;;1.00;;
21299;SDS011;10809;49.476;11.016;2023-04-24T08:26:38;1.30;;;0.73;;
21299;SDS011;10809;49.476;11.016;2023-04-24T08:29:11;0.90;;;0.90;;
21299;SDS011;10809;49.476;11.016;2023-04-24T08:31:45;1.00;;;1.00;;
21299;SDS011;10809;49.476;11.016;2023-04-24T08:34:19;2.83;;;1.20;;
21299;SDS011;10809;49.476;11.016;2023-04-24T08:36:53;0.83;;;0.83;;
21299;SDS011;10809;49.476;11.016;2023-04-24T08:39:24;2.17;;;1.23;;
21299;SDS011;10809;49.476;11.016;2023-04-24T08:42:01;0.80;;;0.80;;
21299;SDS011;10809;49.476;11.016;2023-04-24T08:44:35;1.57;;;1.00;;
21299;SDS011;10809;49.476;11.016;2023-04-24T08:47:09;0.80;;;0.80;;
21299;SDS011;10809;49.476;11.016;2023-04-24T08:49:41;1.13;;;0.80;;
21299;SDS011;10809;49.476;11.016;2023-04-24T08:52:13;1.00;;;0.90;;
21299;SDS011;10809;49.476;11.016;2023-04-24T08:54:43;0.97;;;0.73;;
21299;SDS011;10809;49.476;11.016;2023-04-24T08:57:16;1.87;;;1.10;;
21299;SDS011;10809;49.476;11.016;2023-04-24T08:59:48;0.90;;;0.90;;
21299;SDS011;10809;49.476;11.016;2023-04-24T09:02:19;1.70;;;1.00;;
21299;SDS011;10809;49.476;11.016;2023-04-24T09:04:51;1.30;;;1.00;;
21299;SDS011;10809;49.476;11.016;2023-04-24T09:07:24;1.10;;;1.00;;
21299;SDS011;10809;49.476;11.016;2023-04-24T09:09:57;2.77;;;1.17;;
21299;SDS011;10809;49.476;11.016;2023-04-24T09:12:29;1.17;;;1.03;;
21299;SDS011;10809;49.476;11.016;2023-04-24T09:15:02;1.23;;;1.00;;
21299;SDS011;10809;49.476;11.016;2023-04-24T09:17:37;1.43;;;0.93;;
21299;SDS011;10809;49.476;11.016;2023-04-24T09:20:11;2.30;;;0.87;;
21299;SDS011;10809;49.476;11.016;2023-04-24T09:22:45;1.73;;;0.90;;
21299;SDS011;10809;49.476;11.016;2023-04-24T09:25:15;1.67;;;0.97;;
21299;SDS011;10809;49.476;11.016;2023-04-24T09:27:46;1.27;;;0.90;;
21299;SDS011;10809;49.476;11.016;2023-04-24T09:30:21;0.83;;;0.83;;
21299;SDS011;10809;49.476;11.016;2023-04-24T09:33:09;1.37;;;0.93;;
21299;SDS011;10809;49.476;11.016;2023-04-24T09:35:50;0.83;;;0.83;;
21299;SDS011;10809;49.476;11.016;2023-04-24T09:38:34;2.00;;;0.80;;
21299;SDS011;10809;49.476;11.016;2023-04-24T09:41:08;1.33;;;0.90;;
21299;SDS011;10809;49.476;11.016;2023-04-24T09:43:43;1.23;;;0.90;;
21299;SDS011;10809;49.476;11.016;2023-04-24T09:46:16;0.90;;;0.90;;
21299;SDS011;10809;49.476;11.016;2023-04-24T09:48:48;1.10;;;1.00;;
21299;SDS011;10809;49.476;11.016;2023-04-24T09:51:19;0.90;;;0.90;;
21299;SDS011;10809;49.476;11.016;2023-04-24T09:54:10;0.93;;;0.80;;
21299;SDS011;10809;49.476;11.016;2023-04-24T09:56:46;0.55;;;0.55;;
21299;SDS011;10809;49.476;11.016;2023-04-24T09:59:21;1.17;;;0.60;;
21299;SDS011;10809;49.476;11.016;2023-04-24T10:01:55;0.77;;;0.77;;
21299;SDS011;10809;49.476;11.016;2023-04-24T10:04:30;0.57;;;0.57;;
21299;SDS011;10809;49.476;11.016;2023-04-24T10:07:01;1.35;;;0.60;;
21299;SDS011;10809;49.476;11.016;2023-04-24T10:09:36;1.17;;;0.50;;
21299;SDS011;10809;49.476;11.016;2023-04-24T10:12:07;0.60;;;0.60;;
21299;SDS011;10809;49.476;11.016;2023-04-24T10:14:38;2.15;;;0.60;;
21299;SDS011;10809;49.476;11.016;2023-04-24T10:17:08;1.55;;;0.40;;
21299;SDS011;10809;49.476;11.016;2023-04-24T10:19:43;1.15;;;0.40;;
21299;SDS011;10809;49.476;11.016;2023-04-24T10:22:14;0.52;;;0.52;;
21299;SDS011;10809;49.476;11.016;2023-04-24T10:24:55;1.25;;;0.60;;
21299;SDS011;10809;49.476;11.016;2023-04-24T10:27:27;0.35;;;0.35;;
21299;SDS011;10809;49.476;11.016;2023-04-24T10:30:00;0.30;;;0.30;;
21299;SDS011;10809;49.476;11.016;2023-04-24T10:32:34;0.38;;;0.30;;
21299;SDS011;10809;49.476;11.016;2023-04-24T10:35:11;0.20;;;0.20;;
21299;SDS011;10809;49.476;11.016;2023-04-24T10:40:34;0.50;;;0.17;;
21299;SDS011;10809;49.476;11.016;2023-04-24T10:43:06;2.92;;;0.40;;
21299;SDS011;10809;49.476;11.016;2023-04-24T10:48:31;0.30;;;0.30;;
21299;SDS011;10809;49.476;11.016;2023-04-24T10:51:02;0.40;;;0.40;;
21299;SDS011;10809;49.476;11.016;2023-04-24T10:53:34;1.03;;;0.63;;
21299;SDS011;10809;49.476;11.016;2023-04-24T10:56:05;0.20;;;0.20;;
21299;SDS011;10809;49.476;11.016;2023-04-24T11:01:26;0.30;;;0.27;;
21299;SDS011;10809;49.476;11.016;2023-04-24T11:04:02;0.70;;;0.23;;
21299;SDS011;10809;49.476;11.016;2023-04-24T11:06:34;0.20;;;0.20;;
21299;SDS011;10809;49.476;11.016;2023-04-24T11:09:12;0.40;;;0.40;;
21299;SDS011;10809;49.476;11.016;2023-04-24T11:11:53;0.27;;;0.27;;
21299;SDS011;10809;49.476;11.016;2023-04-24T11:17:35;1.63;;;0.50;;
21299;SDS011;10809;49.476;11.016;2023-04-24T11:20:17;0.40;;;0.40;;
21299;SDS011;10809;49.476;11.016;2023-04-24T11:22:52;0.40;;;0.40;;
21299;SDS011;10809;49.476;11.016;2023-04-24T11:25:30;1.50;;;0.53;;
21299;SDS011;10809;49.476;11.016;2023-04-24T11:28:05;3.70;;;0.40;;
21299;SDS011;10809;49.476;11.016;2023-04-24T11:30:36;0.60;;;0.60;;
21299;SDS011;10809;49.476;11.016;2023-04-24T11:33:16;0.43;;;0.43;;
21299;SDS011;10809;49.476;11.016;2023-04-24T11:35:53;0.43;;;0.43;;
21299;SDS011;10809;49.476;11.016;2023-04-24T11:38:24;1.00;;;0.68;;
21299;SDS011;10809;49.476;11.016;2023-04-24T11:40:54;0.97;;;0.90;;
21299;SDS011;10809;49.476;11.016;2023-04-24T11:43:25;2.20;;;0.70;;
21299;SDS011;10809;49.476;11.016;2023-04-24T11:45:56;0.60;;;0.60;;
21299;SDS011;10809;49.476;11.016;2023-04-24T11:48:33;1.47;;;0.70;;
21299;SDS011;10809;49.476;11.016;2023-04-24T11:51:09;1.10;;;1.00;;
21299;SDS011;10809;49.476;11.016;2023-04-24T11:53:41;2.07;;;0.80;;
21299;SDS011;10809;49.476;11.016;2023-04-24T11:56:12;1.90;;;0.47;;
21299;SDS011;10809;49.476;11.016;2023-04-24T11:58:50;1.03;;;0.40;;
21299;SDS011;10809;49.476;11.016;2023-04-24T12:01:22;0.80;;;0.80;;
21299;SDS011;10809;49.476;11.016;2023-04-24T12:03:58;0.43;;;0.43;;
21299;SDS011;10809;49.476;11.016;2023-04-24T12:06:38;0.73;;;0.60;;
21299;SDS011;10809;49.476;11.016;2023-04-24T12:09:09;0.63;;;0.63;;
21299;SDS011;10809;49.476;11.016;2023-04-24T12:11:52;0.90;;;0.80;;
21299;SDS011;10809;49.476;11.016;2023-04-24T12:14:26;0.70;;;0.70;;
21299;SDS011;10809;49.476;11.016;2023-04-24T12:16:57;0.73;;;0.40;;
21299;SDS011;10809;49.476;11.016;2023-04-24T12:19:27;1.47;;;0.60;;
21299;SDS011;10809;49.476;11.016;2023-04-24T12:22:00;0.83;;;0.60;;
21299;SDS011;10809;49.476;11.016;2023-04-24T12:24:32;1.13;;;0.70;;
21299;SDS011;10809;49.476;11.016;2023-04-24T12:27:05;1.00;;;0.70;;
21299;SDS011;10809;49.476;11.016;2023-04-24T12:29:36;0.40;;;0.40;;
21299;SDS011;10809;49.476;11.016;2023-04-24T12:32:15;0.80;;;0.80;;
21299;SDS011;10809;49.476;11.016;2023-04-24T12:34:46;0.50;;;0.50;;
21299;SDS011;10809;49.476;11.016;2023-04-24T12:37:16;0.60;;;0.60;;
21299;SDS011;10809;49.476;11.016;2023-04-24T12:42:36;1.63;;;0.90;;
21299;SDS011;10809;49.476;11.016;2023-04-24T12:45:17;5.40;;;0.60;;
21299;SDS011;10809;49.476;11.016;2023-04-24T12:47:48;0.57;;;0.50;;
21299;SDS011;10809;49.476;11.016;2023-04-24T12:50:18;0.60;;;0.50;;
21299;SDS011;10809;49.476;11.016;2023-04-24T12:52:49;0.60;;;0.40;;
21299;SDS011;10809;49.476;11.016;2023-04-24T12:55:20;1.40;;;0.73;;
21299;SDS011;10809;49.476;11.016;2023-04-24T12:57:50;1.20;;;0.50;;
21299;SDS011;10809;49.476;11.016;2023-04-24T13:00:22;0.40;;;0.40;;
21299;SDS011;10809;49.476;11.016;2023-04-24T13:02:52;0.90;;;0.50;;
21299;SDS011;10809;49.476;11.016;2023-04-24T13:05:22;0.73;;;0.40;;
21299;SDS011;10809;49.476;11.016;2023-04-24T13:07:56;2.07;;;0.63;;
21299;SDS011;10809;49.476;11.016;2023-04-24T13:10:30;2.33;;;0.40;;
21299;SDS011;10809;49.476;11.016;2023-04-24T13:13:00;1.63;;;0.57;;
21299;SDS011;10809;49.476;11.016;2023-04-24T13:15:34;0.97;;;0.60;;
21299;SDS011;10809;49.476;11.016;2023-04-24T13:18:05;1.10;;;0.90;;
21299;SDS011;10809;49.476;11.016;2023-04-24T13:20:35;0.40;;;0.40;;
21299;SDS011;10809;49.476;11.016;2023-04-24T13:23:06;3.50;;;0.97;;
21299;SDS011;10809;49.476;11.016;2023-04-24T13:25:36;0.57;;;0.57;;
21299;SDS011;10809;49.476;11.016;2023-04-24T13:28:08;1.33;;;0.67;;
21299;SDS011;10809;49.476;11.016;2023-04-24T13:30:39;2.53;;;0.60;;
21299;SDS011;10809;49.476;11.016;2023-04-24T13:33:09;1.60;;;0.40;;
21299;SDS011;10809;49.476;11.016;2023-04-24T13:35:41;2.67;;;0.70;;
21299;SDS011;10809;49.476;11.016;2023-04-24T13:38:12;3.07;;;0.60;;
21299;SDS011;10809;49.476;11.016;2023-04-24T13:40:42;0.60;;;0.60;;
21299;SDS011;10809;49.476;11.016;2023-04-24T13:43:12;1.60;;;0.63;;
21299;SDS011;10809;49.476;11.016;2023-04-24T13:45:43;1.90;;;0.60;;
21299;SDS011;10809;49.476;11.016;2023-04-24T13:48:13;0.40;;;0.40;;
21299;SDS011;10809;49.476;11.016;2023-04-24T13:50:45;0.70;;;0.70;;
21299;SDS011;10809;49.476;11.016;2023-04-24T13:53:18;1.50;;;0.50;;
21299;SDS011;10809;49.476;11.016;2023-04-24T13:55:48;0.60;;;0.60;;
21299;SDS011;10809;49.476;11.016;2023-04-24T13:58:21;0.60;;;0.50;;
21299;SDS011;10809;49.476;11.016;2023-04-24T14:01:01;1.10;;;1.00;;
21299;SDS011;10809;49.476;11.016;2023-04-24T14:03:32;0.90;;;0.90;;
21299;SDS011;10809;49.476;11.016;2023-04-24T14:06:03;0.90;;;0.90;;
21299;SDS011;10809;49.476;11.016;2023-04-24T14:08:36;1.10;;;1.10;;
21299;SDS011;10809;49.476;11.016;2023-04-24T14:11:07;1.93;;;1.10;;
21299;SDS011;10809;49.476;11.016;2023-04-24T14:13:37;2.87;;;1.10;;
21299;SDS011;10809;49.476;11.016;2023-04-24T14:16:08;0.87;;;0.87;;
21299;SDS011;10809;49.476;11.016;2023-04-24T14:18:40;1.10;;;0.80;;
21299;SDS011;10809;49.476;11.016;2023-04-24T14:21:10;0.60;;;0.60;;
21299;SDS011;10809;49.476;11.016;2023-04-24T14:23:40;1.10;;;1.00;;
21299;SDS011;10809;49.476;11.016;2023-04-24T14:26:11;1.47;;;1.27;;
21299;SDS011;10809;49.476;11.016;2023-04-24T14:28:41;1.83;;;1.27;;
21299;SDS011;10809;49.476;11.016;2023-04-24T14:31:11;1.27;;;0.80;;
21299;SDS011;10809;49.476;11.016;2023-04-24T14:33:42;1.03;;;0.77;;
21299;SDS011;10809;49.476;11.016;2023-04-24T14:36:12;0.70;;;0.70;;
21299;SDS011;10809;49.476;11.016;2023-04-24T14:38:42;0.77;;;0.77;;
21299;SDS011;10809;49.476;11.016;2023-04-24T14:41:13;0.57;;;0.57;;
21299;SDS011;10809;49.476;11.016;2023-04-24T14:43:43;1.03;;;0.60;;
21299;SDS011;10809;49.476;11.016;2023-04-24T14:46:14;1.23;;;0.57;;
21299;SDS011;10809;49.476;11.016;2023-04-24T14:48:47;0.60;;;0.60;;
21299;SDS011;10809;49.476;11.016;2023-04-24T14:51:17;0.80;;;0.80;;
21299;SDS011;10809;49.476;11.016;2023-04-24T14:53:48;0.90;;;0.90;;
21299;SDS011;10809;49.476;11.016;2023-04-24T14:56:18;0.70;;;0.70;;
21299;SDS011;10809;49.476;11.016;2023-04-24T14:58:48;0.80;;;0.80;;
21299;SDS011;10809;49.476;11.016;2023-04-24T15:01:19;1.80;;;0.73;;
21299;SDS011;10809;49.476;11.016;2023-04-24T15:03:49;1.17;;;0.80;;
21299;SDS011;10809;49.476;11.016;2023-04-24T15:06:23;0.73;;;0.73;;
21299;SDS011;10809;49.476;11.016;2023-04-24T15:08:53;0.57;;;0.57;;
21299;SDS011;10809;49.476;11.016;2023-04-24T15:11:23;0.93;;;0.70;;
21299;SDS011;10809;49.476;11.016;2023-04-24T15:13:55;1.30;;;1.10;;
21299;SDS011;10809;49.476;11.016;2023-04-24T15:16:25;0.53;;;0.53;;
21299;SDS011;10809;49.476;11.016;2023-04-24T15:18:56;1.10;;;0.87;;
21299;SDS011;10809;49.476;11.016;2023-04-24T15:21:27;1.20;;;1.00;;
21299;SDS011;10809;49.476;11.016;2023-04-24T15:23:57;1.10;;;1.00;;